This is the latest recevied weather packets stored in our database for station/object SP6KBU-12. If no packets are shown the sender has not sent any weather packets the latest 10 day(s).
| Time | Temp. | Humidity | Pressure | Rain* | Wind** | Luminosity | Snow |
|---|---|---|---|---|---|---|---|
| 1778054514 | 19.44° C | 50% | 1008.1 hPa | - | - | - | - |
| 1778053614 | 17.78° C | 53% | 1008.2 hPa | - | - | - | - |
| 1778052714 | 16.67° C | 54% | 1008 hPa | - | - | - | - |
| 1778051813 | 16.11° C | 55% | 1007.9 hPa | - | - | - | - |
| 1778050911 | 16.67° C | 54% | 1007.9 hPa | - | - | - | - |
| 1778050010 | 17.78° C | 52% | 1007.7 hPa | - | - | - | - |
| 1778049110 | 16.67° C | 55% | 1007.8 hPa | - | - | - | - |
| 1778048209 | 16.67° C | 56% | 1007.8 hPa | - | - | - | - |
| 1778047309 | 16.67° C | 61% | 1007.6 hPa | - | - | - | - |
| 1778046408 | 15.56° C | 65% | 1007.7 hPa | - | - | - | - |
| 1778045508 | 14.44° C | 68% | 1007.7 hPa | - | - | - | - |
| 1778044608 | 13.89° C | 69% | 1007.3 hPa | - | - | - | - |
| 1778043708 | 12.22° C | 69% | 1007.3 hPa | - | - | - | - |
| 1778042809 | 11.11° C | 71% | 1007.3 hPa | - | - | - | - |
| 1778041909 | 11.11° C | 69% | 1007.1 hPa | - | - | - | - |
| 1778041008 | 12.22° C | 67% | 1007.1 hPa | - | - | - | - |
| 1778040108 | 12.22° C | 68% | 1007 hPa | - | - | - | - |
| 1778039208 | 12.22° C | 68% | 1007 hPa | - | - | - | - |
| 1778038308 | 12.22° C | 68% | 1007 hPa | - | - | - | - |
| 1778037408 | 12.22° C | 68% | 1007.1 hPa | - | - | - | - |
| 1778036508 | 12.22° C | 69% | 1007.1 hPa | - | - | - | - |
| 1778035608 | 12.22° C | 69% | 1006.9 hPa | - | - | - | - |
| 1778034708 | 12.22° C | 68% | 1006.8 hPa | - | - | - | - |
| 1778033808 | 12.22° C | 68% | 1007 hPa | - | - | - | - |
| 1778032907 | 12.22° C | 70% | 1007.3 hPa | - | - | - | - |
* Rain since midnight (hover to see other rain measurements)
** Current wind speed in m/s (hover to see current wind gust speed)